Terminal Aerodrome Forecast
Issued by NWS Northern Indiana

Home | Current Version | Previous Version | Graphics & Text | Print | Product List | Glossary On
Versions: 1 2 3 4 5 6 7 8 9 10 11 12 13 14 15 16 17
000
FTUS43 KIWX 162331
TAFFWA
TAF
KFWA 162331Z 1700/1724 11007KT 1SM BR OVC003
     FM170200 12007KT 3SM -RA BR OVC003
      TEMPO 1702/1704 2SM -RA BR
     FM170400 13007KT 1/2SM RA FG OVC003 WS020/19035KT
     FM170900 17008KT 1SM RA BR OVC003 WS020/20040KT
     FM171100 20008KT 1SM RA BR OVC003
     FM171400 23008KT 2SM RA BR OVC015
     FM171600 24010KT 4SM BR OVC008=

USA.gov is the U.S. government's official web portal to all federal, state and local government web resources and services.